Time;durP1;ratioP1;P1;durP2;ratioP2;P2;SDS_P1;SDS_P2;PMS_P1;PMS_P2;Temp;Humidity;BMP_temperature;BMP_pressure;BME280_temperature;BME280_humidity;BME280_pressure;Samples;Min_cycle;Max_cycle;Signal;HPM_P1;HPM_P2
2021/08/03 00:00:32;;;;;;;3.53;2.90;;;16.10;99.90;;;;;;5017853;28;20573;-84
2021/08/03 00:03:01;;;;;;;3.53;3.13;;;16.10;99.90;;;;;;5014744;28;20583;-84
2021/08/03 00:05:29;;;;;;;5.20;3.40;;;16.00;99.90;;;;;;5015855;28;20578;-85
2021/08/03 00:08:01;;;;;;;4.63;3.07;;;16.00;99.90;;;;;;5014969;28;20652;-85
2021/08/03 00:10:28;;;;;;;3.80;2.93;;;16.00;99.90;;;;;;5015407;28;20596;-85
2021/08/03 00:12:54;;;;;;;4.30;3.67;;;16.00;99.90;;;;;;5013384;28;20617;-85
2021/08/03 00:15:21;;;;;;;4.40;4.00;;;16.00;99.90;;;;;;5013070;28;20671;-85
2021/08/03 00:17:51;;;;;;;4.67;3.60;;;16.00;99.90;;;;;;5014159;28;20701;-85
2021/08/03 00:20:18;;;;;;;3.67;3.27;;;16.00;99.90;;;;;;5013026;28;20616;-85
2021/08/03 00:22:44;;;;;;;5.13;4.63;;;16.00;99.90;;;;;;5014227;28;20926;-84
2021/08/03 00:25:12;;;;;;;5.33;3.47;;;16.00;99.90;;;;;;5013075;28;20600;-85
2021/08/03 00:27:38;;;;;;;4.20;3.33;;;16.10;99.90;;;;;;5013766;28;20190;-84
2021/08/03 00:30:06;;;;;;;5.00;3.70;;;16.10;99.90;;;;;;5014025;28;20906;-84
2021/08/03 00:32:32;;;;;;;4.87;3.60;;;16.10;99.90;;;;;;5012787;28;20760;-84
2021/08/03 00:34:58;;;;;;;4.23;3.80;;;16.20;99.90;;;;;;5013062;28;20576;-84
2021/08/03 00:37:23;;;;;;;4.23;3.30;;;16.20;99.90;;;;;;5000756;28;20593;-85
2021/08/03 00:39:49;;;;;;;3.60;3.30;;;16.30;99.90;;;;;;5013938;28;20170;-85
2021/08/03 00:42:17;;;;;;;4.47;3.03;;;16.30;99.90;;;;;;5012786;28;20298;-85
2021/08/03 00:44:49;;;;;;;4.13;3.50;;;16.30;99.90;;;;;;5012786;28;20588;-85
2021/08/03 00:47:26;;;;;;;4.43;3.13;;;16.40;99.90;;;;;;5013855;28;20637;-85
2021/08/03 00:49:59;;;;;;;3.87;3.10;;;16.50;99.90;;;;;;5013841;28;20617;-84
2021/08/03 00:52:26;;;;;;;3.43;3.13;;;16.60;99.90;;;;;;5013885;28;21176;-85
2021/08/03 00:54:53;;;;;;;3.33;2.87;;;16.60;99.90;;;;;;5013627;28;20202;-84
2021/08/03 00:57:21;;;;;;;4.83;3.57;;;16.60;99.90;;;;;;5012348;28;20613;-85
2021/08/03 00:59:47;;;;;;;5.00;2.97;;;16.60;99.90;;;;;;5012007;28;20635;-85
2021/08/03 01:02:16;;;;;;;3.13;2.37;;;16.70;99.90;;;;;;5012714;28;20616;-86
2021/08/03 01:04:43;;;;;;;3.30;2.83;;;16.70;99.90;;;;;;5013994;28;20570;-86
2021/08/03 01:07:48;;;;;;;6.20;3.10;;;16.70;99.90;;;;;;5013873;28;20625;-85
2021/08/03 01:10:32;;;;;;;3.13;2.83;;;16.80;99.90;;;;;;5013956;28;20948;-87
2021/08/03 01:13:23;;;;;;;4.50;3.83;;;16.80;99.90;;;;;;5017603;28;20616;-87
2021/08/03 01:16:25;;;;;;;3.13;2.73;;;16.80;99.90;;;;;;5013357;28;20562;-86
2021/08/03 01:19:19;;;;;;;3.20;2.43;;;16.90;99.90;;;;;;5013315;28;20627;-86
2021/08/03 01:21:56;;;;;;;4.03;2.73;;;16.90;99.90;;;;;;5012291;28;20585;-85
2021/08/03 01:24:58;;;;;;;3.27;2.80;;;17.00;99.90;;;;;;5012454;28;20592;-85
2021/08/03 01:27:43;;;;;;;3.00;2.73;;;16.90;99.90;;;;;;5015904;28;20601;-84
2021/08/03 01:30:12;;;;;;;3.03;2.73;;;17.00;99.90;;;;;;5020754;28;20592;-84
2021/08/03 01:32:43;;;;;;;3.30;3.00;;;17.00;99.90;;;;;;5020676;28;20609;-83
2021/08/03 01:35:11;;;;;;;3.23;2.93;;;17.00;99.90;;;;;;5017450;28;20932;-84
2021/08/03 01:37:38;;;;;;;3.57;3.23;;;17.00;99.90;;;;;;5016066;28;20613;-85
2021/08/03 01:40:13;;;;;;;6.03;3.03;;;17.00;99.90;;;;;;5016251;28;21163;-85
2021/08/03 01:42:43;;;;;;;4.07;3.20;;;17.00;99.90;;;;;;5017170;28;21201;-85
2021/08/03 01:45:11;;;;;;;4.03;3.60;;;17.00;99.90;;;;;;5018337;28;21068;-84
2021/08/03 01:47:38;;;;;;;3.50;3.20;;;17.00;99.90;;;;;;5014389;28;20613;-85
2021/08/03 01:50:08;;;;;;;5.57;4.27;;;17.00;99.90;;;;;;5018114;28;20619;-85
2021/08/03 01:52:38;;;;;;;3.60;3.30;;;17.00;99.90;;;;;;5021484;28;20661;-84
2021/08/03 01:55:10;;;;;;;3.50;3.20;;;17.00;99.90;;;;;;5022415;28;20569;-84
2021/08/03 01:57:42;;;;;;;5.00;4.10;;;17.00;99.90;;;;;;5021780;28;21125;-84
2021/08/03 02:00:14;;;;;;;5.33;4.40;;;17.00;99.90;;;;;;5022383;28;20996;-83
2021/08/03 02:02:44;;;;;;;6.30;5.10;;;17.00;99.90;;;;;;5023025;28;20597;-84
2021/08/03 02:05:45;;;;;;;6.07;5.57;;;17.00;99.90;;;;;;5024082;28;20585;-84
2021/08/03 02:08:29;;;;;;;6.73;5.07;;;17.00;99.90;;;;;;5014510;28;21061;-84
2021/08/03 02:11:08;;;;;;;7.90;4.70;;;16.90;99.90;;;;;;4999060;28;20542;-85
2021/08/03 02:13:34;;;;;;;5.50;5.00;;;16.90;99.90;;;;;;5017735;28;20979;-85
2021/08/03 02:16:01;;;;;;;6.17;5.57;;;16.90;99.90;;;;;;5014887;28;20724;-86
2021/08/03 02:18:28;;;;;;;5.03;4.63;;;16.90;99.90;;;;;;5014534;28;20574;-86
2021/08/03 02:20:56;;;;;;;5.30;4.80;;;16.90;99.90;;;;;;5011443;28;20668;-86
2021/08/03 02:23:28;;;;;;;5.50;5.00;;;16.90;99.90;;;;;;5011981;28;20600;-85
2021/08/03 02:26:00;;;;;;;5.27;3.97;;;16.90;99.90;;;;;;5013250;28;20620;-85
2021/08/03 02:28:26;;;;;;;5.07;4.57;;;16.90;99.90;;;;;;5015809;28;20577;-85
2021/08/03 02:30:55;;;;;;;4.70;4.27;;;16.90;99.90;;;;;;5015467;28;20586;-85
2021/08/03 02:33:27;;;;;;;5.20;4.70;;;16.90;99.90;;;;;;5014218;28;20205;-84
2021/08/03 02:36:03;;;;;;;4.30;4.00;;;16.90;99.90;;;;;;5011656;28;20577;-85
2021/08/03 02:38:32;;;;;;;4.40;4.00;;;16.90;99.90;;;;;;5011676;28;20582;-85
2021/08/03 02:40:59;;;;;;;4.63;4.23;;;17.00;99.90;;;;;;5013513;28;20570;-85
2021/08/03 02:43:33;;;;;;;4.90;4.50;;;17.00;99.90;;;;;;5011980;28;20680;-85
2021/08/03 02:46:03;;;;;;;6.50;4.53;;;17.00;99.90;;;;;;5011230;28;20660;-85
2021/08/03 02:48:33;;;;;;;6.10;5.00;;;17.00;99.90;;;;;;5013829;28;20635;-86
2021/08/03 02:50:59;;;;;;;5.37;4.40;;;17.00;99.90;;;;;;5014032;28;21127;-86
2021/08/03 02:53:44;;;;;;;5.30;4.37;;;17.00;99.90;;;;;;5012980;28;20617;-86
2021/08/03 02:56:14;;;;;;;4.70;4.30;;;17.00;99.90;;;;;;5012895;28;21129;-86
2021/08/03 02:58:43;;;;;;;5.70;5.10;;;17.10;99.90;;;;;;5010947;28;20585;-86
2021/08/03 03:01:12;;;;;;;5.00;4.20;;;17.00;99.90;;;;;;5010509;28;20598;-85
2021/08/03 03:03:44;;;;;;;4.60;4.17;;;17.00;99.90;;;;;;5015773;28;20615;-85
2021/08/03 03:06:12;;;;;;;5.13;4.67;;;17.00;99.90;;;;;;5010251;28;20643;-85
2021/08/03 03:08:43;;;;;;;5.33;4.10;;;17.00;99.90;;;;;;5011815;28;20713;-85
2021/08/03 03:11:10;;;;;;;5.13;4.37;;;16.90;99.90;;;;;;5011535;28;20585;-85
2021/08/03 03:13:39;;;;;;;6.70;5.37;;;16.90;99.90;;;;;;5011802;28;21168;-85
2021/08/03 03:16:07;;;;;;;5.20;4.70;;;16.90;99.90;;;;;;5011206;28;20637;-86
2021/08/03 03:18:34;;;;;;;5.20;4.67;;;16.90;99.90;;;;;;5010885;28;20569;-86
2021/08/03 03:21:03;;;;;;;5.33;4.87;;;16.90;99.90;;;;;;5011730;28;20565;-86
2021/08/03 03:23:35;;;;;;;4.10;3.57;;;16.80;99.90;;;;;;5010591;28;20675;-86
2021/08/03 03:26:03;;;;;;;4.80;4.17;;;16.80;99.90;;;;;;4993792;28;20667;-86
2021/08/03 03:28:32;;;;;;;6.20;5.03;;;16.80;99.90;;;;;;5011734;28;20562;-86
2021/08/03 03:31:00;;;;;;;4.30;3.80;;;16.80;99.90;;;;;;5011694;28;20648;-86
2021/08/03 03:33:29;;;;;;;4.97;4.47;;;16.80;99.90;;;;;;5011435;28;21159;-85
2021/08/03 03:35:58;;;;;;;6.20;5.60;;;16.80;99.90;;;;;;5014254;28;20569;-85
2021/08/03 03:38:30;;;;;;;7.03;4.13;;;16.80;99.90;;;;;;5013933;28;20600;-85
2021/08/03 03:40:57;;;;;;;6.20;5.10;;;16.80;99.90;;;;;;5019298;28;21120;-78
2021/08/03 03:43:27;;;;;;;4.47;4.00;;;16.80;99.90;;;;;;5013377;28;21159;-79
2021/08/03 03:45:59;;;;;;;4.63;3.87;;;16.80;99.90;;;;;;5013233;28;20577;-79
2021/08/03 03:48:29;;;;;;;4.80;3.17;;;16.80;99.90;;;;;;5013515;28;20582;-79
2021/08/03 03:50:59;;;;;;;4.33;3.87;;;16.80;99.90;;;;;;5013278;28;20589;-79
2021/08/03 03:53:47;;;;;;;4.23;3.93;;;16.90;99.90;;;;;;5014398;28;20617;-79
2021/08/03 03:56:16;;;;;;;7.10;5.37;;;16.90;99.90;;;;;;5014237;28;21005;-80
2021/08/03 03:58:49;;;;;;;5.53;4.63;;;16.90;99.90;;;;;;5014788;28;20569;-78
2021/08/03 04:01:21;;;;;;;4.67;4.03;;;16.90;99.90;;;;;;5014067;28;20976;-79
2021/08/03 04:03:49;;;;;;;6.63;4.90;;;16.80;99.90;;;;;;5017222;28;20569;-79
2021/08/03 04:06:15;;;;;;;4.20;3.90;;;16.90;99.90;;;;;;5014591;28;20775;-79
2021/08/03 04:08:41;;;;;;;5.97;5.17;;;16.90;99.90;;;;;;5014318;28;20654;-80
2021/08/03 04:11:13;;;;;;;4.73;4.33;;;16.90;99.90;;;;;;5014349;28;20565;-79
2021/08/03 04:13:48;;;;;;;4.17;3.77;;;16.90;99.90;;;;;;5013385;28;20633;-79
2021/08/03 04:16:15;;;;;;;3.57;3.30;;;16.90;99.90;;;;;;5013329;28;20596;-79
2021/08/03 04:18:42;;;;;;;5.97;3.83;;;16.90;99.90;;;;;;5017904;28;20585;-79
2021/08/03 04:21:07;;;;;;;5.10;4.27;;;17.00;99.90;;;;;;5014027;28;21047;-79
2021/08/03 04:23:33;;;;;;;4.43;4.03;;;17.00;99.90;;;;;;5014217;28;20180;-79
2021/08/03 04:25:59;;;;;;;4.47;4.17;;;17.00;99.90;;;;;;5013480;28;20202;-79
2021/08/03 04:28:25;;;;;;;6.20;5.03;;;17.00;99.90;;;;;;5012890;28;20935;-79
2021/08/03 04:30:51;;;;;;;4.17;3.77;;;16.90;99.90;;;;;;5013721;28;20578;-79
2021/08/03 04:33:18;;;;;;;5.13;4.73;;;17.00;99.90;;;;;;5014010;28;20973;-79
2021/08/03 04:35:44;;;;;;;5.10;4.60;;;17.00;99.90;;;;;;5013266;28;20170;-79
2021/08/03 04:38:09;;;;;;;5.37;4.90;;;16.90;99.90;;;;;;5013835;28;20573;-79
2021/08/03 04:40:35;;;;;;;6.97;5.37;;;16.90;99.90;;;;;;5012422;28;20162;-79
2021/08/03 04:43:01;;;;;;;4.73;4.33;;;16.90;99.90;;;;;;5012638;28;20593;-78
2021/08/03 04:45:27;;;;;;;5.20;4.53;;;17.00;99.90;;;;;;5022616;28;20193;-78
2021/08/03 04:47:53;;;;;;;4.37;3.97;;;17.00;99.90;;;;;;5032505;28;20205;-78
2021/08/03 04:50:27;;;;;;;5.67;4.80;;;17.00;99.90;;;;;;5033194;28;20185;-78
2021/08/03 04:52:54;;;;;;;5.73;4.40;;;17.00;99.90;;;;;;5033452;28;21012;-77
2021/08/03 04:55:20;;;;;;;4.83;4.00;;;17.00;99.90;;;;;;5035585;28;20576;-78
2021/08/03 04:57:46;;;;;;;4.27;3.03;;;17.00;99.90;;;;;;5013382;28;20603;-79
2021/08/03 05:00:14;;;;;;;3.63;3.33;;;17.00;99.90;;;;;;5012135;28;20631;-79
2021/08/03 05:02:41;;;;;;;3.77;3.03;;;17.10;99.90;;;;;;5013270;28;20580;-79
2021/08/03 05:05:09;;;;;;;4.23;3.83;;;17.10;99.90;;;;;;5013078;28;20572;-79
2021/08/03 05:07:35;;;;;;;4.80;4.40;;;17.20;99.90;;;;;;5012960;28;21067;-80
2021/08/03 05:10:03;;;;;;;5.07;4.47;;;17.10;99.90;;;;;;5013172;28;20575;-79
2021/08/03 05:12:30;;;;;;;5.10;4.40;;;17.20;99.90;;;;;;5013139;28;20593;-80
2021/08/03 05:15:00;;;;;;;4.00;3.70;;;17.20;99.90;;;;;;5011712;28;20664;-79
2021/08/03 05:17:31;;;;;;;7.70;3.90;;;17.20;99.90;;;;;;5012903;28;20664;-80
2021/08/03 05:19:57;;;;;;;3.57;3.03;;;17.20;99.90;;;;;;5013038;28;21112;-81
2021/08/03 05:22:24;;;;;;;4.27;3.93;;;17.20;99.90;;;;;;5012866;28;20569;-79
2021/08/03 05:24:50;;;;;;;5.00;4.03;;;17.30;99.90;;;;;;5011564;28;20577;-79
2021/08/03 05:27:15;;;;;;;5.60;5.13;;;17.30;99.90;;;;;;5012670;28;20639;-79
2021/08/03 05:29:41;;;;;;;4.83;4.43;;;17.30;99.90;;;;;;5013061;28;20174;-78
2021/08/03 05:32:07;;;;;;;4.37;3.87;;;17.40;99.90;;;;;;5016638;28;20257;-79
2021/08/03 05:34:33;;;;;;;4.90;4.50;;;17.40;99.90;;;;;;5027628;28;20206;-79
2021/08/03 05:37:02;;;;;;;4.20;3.80;;;17.40;99.90;;;;;;5011885;28;20186;-79
2021/08/03 05:39:28;;;;;;;5.90;5.10;;;17.40;99.90;;;;;;5011544;28;21218;-79
2021/08/03 05:41:53;;;;;;;5.40;4.90;;;17.40;99.90;;;;;;5011411;28;20687;-79
2021/08/03 05:44:19;;;;;;;4.70;4.23;;;17.40;99.90;;;;;;5012424;28;20166;-79
2021/08/03 05:46:46;;;;;;;4.73;4.33;;;17.40;99.90;;;;;;5016495;28;20850;-80
2021/08/03 05:49:11;;;;;;;5.73;5.10;;;17.40;99.90;;;;;;5023017;28;20182;-79
2021/08/03 05:51:37;;;;;;;5.20;3.60;;;17.40;99.90;;;;;;5024733;28;21322;-79
2021/08/03 05:54:03;;;;;;;4.60;4.10;;;17.50;99.90;;;;;;5020765;28;20285;-79
2021/08/03 05:56:28;;;;;;;6.13;4.00;;;17.50;99.90;;;;;;5019297;28;20194;-80
2021/08/03 05:58:54;;;;;;;6.10;5.13;;;17.60;99.90;;;;;;5017777;28;20702;-80
2021/08/03 06:01:20;;;;;;;5.57;4.97;;;17.60;99.90;;;;;;5016730;28;20217;-80
2021/08/03 06:03:45;;;;;;;4.50;3.83;;;17.70;99.90;;;;;;5021149;28;20251;-81
2021/08/03 06:06:15;;;;;;;5.63;5.23;;;17.80;99.90;;;;;;5017222;28;20676;-81
2021/08/03 06:08:42;;;;;;;5.87;5.27;;;17.80;99.90;;;;;;5003290;28;20808;-79
2021/08/03 06:11:19;;;;;;;6.40;4.77;;;17.90;99.90;;;;;;5012360;28;20569;-79
2021/08/03 06:13:47;;;;;;;4.53;4.20;;;17.90;99.90;;;;;;5018625;28;20636;-82
2021/08/03 06:16:17;;;;;;;4.87;4.47;;;17.90;99.90;;;;;;5032317;28;20647;-80
2021/08/03 06:18:45;;;;;;;7.03;5.27;;;18.00;99.90;;;;;;5029959;28;20576;-82
2021/08/03 06:21:12;;;;;;;4.20;3.90;;;18.00;99.90;;;;;;5019138;28;20589;-81
2021/08/03 06:23:44;;;;;;;5.10;4.60;;;18.00;99.90;;;;;;5014009;28;20577;-80
2021/08/03 06:26:10;;;;;;;4.80;4.30;;;18.00;99.90;;;;;;5018438;28;20610;-81
2021/08/03 06:28:36;;;;;;;4.07;3.63;;;18.00;99.90;;;;;;5017232;28;20590;-80
2021/08/03 06:31:03;;;;;;;6.93;4.50;;;18.00;99.90;;;;;;5014805;28;21054;-81
2021/08/03 06:33:30;;;;;;;6.63;4.73;;;18.10;99.90;;;;;;5016247;28;20992;-80
2021/08/03 06:35:56;;;;;;;4.90;4.40;;;18.10;99.90;;;;;;5017783;28;20596;-79
2021/08/03 06:38:22;;;;;;;5.43;4.40;;;18.10;99.90;;;;;;5017061;28;20601;-79
2021/08/03 06:41:02;;;;;;;5.13;4.73;;;18.10;99.90;;;;;;5032220;28;20656;-78
2021/08/03 06:43:30;;;;;;;4.70;4.30;;;18.20;99.90;;;;;;5017534;28;20945;-79
2021/08/03 06:46:08;;;;;;;5.27;4.73;;;18.10;99.90;;;;;;5020193;28;20600;-78
2021/08/03 06:48:43;;;;;;;5.23;4.73;;;18.10;99.90;;;;;;5013227;28;20627;-78
2021/08/03 06:51:13;;;;;;;7.43;6.07;;;18.10;99.90;;;;;;5013650;28;20577;-78
2021/08/03 06:53:45;;;;;;;7.00;5.90;;;18.00;99.90;;;;;;5016775;28;20984;-79
2021/08/03 06:56:14;;;;;;;6.27;5.77;;;17.90;99.90;;;;;;5017750;28;20712;-78
2021/08/03 06:59:05;;;;;;;6.50;5.67;;;17.90;99.90;;;;;;5018504;28;20649;-78
2021/08/03 07:01:42;;;;;;;4.97;4.43;;;17.90;99.90;;;;;;5013363;28;20597;-78
2021/08/03 07:04:11;;;;;;;5.43;5.00;;;17.90;99.90;;;;;;5021241;28;20584;-79
2021/08/03 07:06:43;;;;;;;5.87;5.33;;;17.90;99.90;;;;;;5025148;28;20640;-80
2021/08/03 07:09:09;;;;;;;6.17;5.07;;;17.90;99.90;;;;;;5032860;28;20636;-80
2021/08/03 07:11:37;;;;;;;6.33;5.30;;;18.00;99.90;;;;;;5039910;28;20577;-80
2021/08/03 07:14:04;;;;;;;7.50;5.43;;;18.00;99.90;;;;;;5038915;28;20625;-80
2021/08/03 07:16:31;;;;;;;5.63;4.80;;;18.00;99.90;;;;;;5037544;28;20625;-80
2021/08/03 07:18:58;;;;;;;6.30;4.90;;;18.00;99.90;;;;;;5032378;28;20584;-79
2021/08/03 07:21:27;;;;;;;5.80;4.00;;;18.10;99.90;;;;;;5032334;28;20566;-80
2021/08/03 07:23:55;;;;;;;4.37;3.97;;;18.10;99.90;;;;;;5032968;28;20588;-79
2021/08/03 07:26:22;;;;;;;4.97;4.47;;;18.00;99.90;;;;;;5027854;28;20600;-79
2021/08/03 07:28:48;;;;;;;4.60;4.20;;;18.00;99.90;;;;;;5025120;28;20577;-79
2021/08/03 07:31:14;;;;;;;5.47;5.07;;;18.10;99.90;;;;;;5019864;28;20565;-79
2021/08/03 07:33:40;;;;;;;6.67;4.30;;;18.10;99.90;;;;;;5030117;28;20229;-79
2021/08/03 07:36:05;;;;;;;3.97;3.67;;;18.10;99.90;;;;;;5022949;28;20182;-78
2021/08/03 07:38:31;;;;;;;5.50;5.10;;;18.00;99.90;;;;;;5019464;28;20993;-79
2021/08/03 07:40:57;;;;;;;5.33;4.93;;;18.00;99.90;;;;;;5021003;28;20634;-79
2021/08/03 07:43:23;;;;;;;4.73;4.33;;;18.00;99.90;;;;;;5019594;28;20170;-80
2021/08/03 07:45:49;;;;;;;5.70;4.70;;;18.00;99.90;;;;;;5017704;28;20171;-80
2021/08/03 07:48:15;;;;;;;5.60;5.20;;;18.00;99.90;;;;;;5019764;28;20253;-79
2021/08/03 07:50:41;;;;;;;5.97;4.90;;;18.00;99.90;;;;;;5019026;28;20765;-80
2021/08/03 07:53:07;;;;;;;6.30;5.03;;;18.10;99.90;;;;;;5017891;28;20973;-80
2021/08/03 07:55:33;;;;;;;5.73;5.23;;;18.20;99.90;;;;;;5017494;28;20708;-80
2021/08/03 07:57:59;;;;;;;5.67;5.00;;;18.30;99.90;;;;;;5006368;28;20664;-79
2021/08/03 08:00:24;;;;;;;4.30;4.00;;;18.40;99.90;;;;;;5022805;28;20170;-80
2021/08/03 08:02:50;;;;;;;6.00;5.10;;;18.60;99.90;;;;;;5025189;28;20174;-79
2021/08/03 08:05:16;;;;;;;5.83;5.33;;;18.80;99.90;;;;;;5026456;28;20182;-80
2021/08/03 08:07:42;;;;;;;4.93;4.07;;;18.90;99.90;;;;;;5023970;28;20627;-79
2021/08/03 08:10:08;;;;;;;4.87;4.47;;;19.10;99.90;;;;;;5027836;28;20218;-80
2021/08/03 08:12:34;;;;;;;4.70;4.30;;;19.30;99.90;;;;;;5028316;28;20631;-80
2021/08/03 08:15:00;;;;;;;5.60;4.83;;;19.30;99.90;;;;;;5031712;28;20574;-80
2021/08/03 08:17:26;;;;;;;4.30;4.00;;;19.40;99.90;;;;;;5035851;28;20722;-80
2021/08/03 08:19:52;;;;;;;3.93;3.63;;;19.40;99.90;;;;;;5032759;28;20631;-80
2021/08/03 08:22:18;;;;;;;4.17;3.77;;;19.50;99.90;;;;;;5035929;28;20163;-80
2021/08/03 08:24:44;;;;;;;6.10;5.50;;;19.50;99.90;;;;;;5036960;28;20169;-80
2021/08/03 08:27:10;;;;;;;4.40;3.93;;;19.40;99.90;;;;;;5036184;28;20190;-80
2021/08/03 08:29:38;;;;;;;4.17;3.77;;;19.40;99.90;;;;;;5024395;28;20608;-82
2021/08/03 08:32:04;;;;;;;3.80;3.50;;;19.40;99.90;;;;;;5020497;28;20585;-81
2021/08/03 08:34:30;;;;;;;4.40;3.93;;;19.50;99.90;;;;;;5020407;28;20724;-81
2021/08/03 08:36:57;;;;;;;5.43;4.93;;;19.50;99.90;;;;;;5033490;28;20593;-80
2021/08/03 08:39:22;;;;;;;3.63;3.33;;;19.40;99.90;;;;;;5034696;28;20162;-80
2021/08/03 08:41:49;;;;;;;5.23;3.83;;;19.50;99.90;;;;;;5035034;28;20573;-80
2021/08/03 08:44:18;;;;;;;4.00;3.60;;;19.50;99.90;;;;;;5028337;28;20190;-80
2021/08/03 08:46:45;;;;;;;3.80;3.50;;;19.50;99.90;;;;;;5021610;28;20703;-80
2021/08/03 08:49:14;;;;;;;4.33;3.30;;;19.40;99.90;;;;;;5020739;28;20577;-75
2021/08/03 08:51:41;;;;;;;4.10;3.70;;;19.50;99.90;;;;;;5012004;28;20647;-75
2021/08/03 08:54:07;;;;;;;4.27;3.73;;;19.50;99.90;;;;;;5013068;28;20625;-76
2021/08/03 08:56:33;;;;;;;4.07;3.67;;;19.50;99.90;;;;;;5012931;28;20604;-76
2021/08/03 08:58:58;;;;;;;4.10;3.80;;;19.50;99.90;;;;;;5012259;28;20923;-76
2021/08/03 09:01:24;;;;;;;3.90;3.60;;;19.50;99.90;;;;;;5011948;28;20174;-77
2021/08/03 09:03:50;;;;;;;3.30;3.00;;;19.50;99.90;;;;;;5011933;28;20173;-77
2021/08/03 09:06:21;;;;;;;6.00;3.60;;;19.50;99.90;;;;;;5012743;28;20212;-77
2021/08/03 09:08:49;;;;;;;4.63;3.47;;;19.50;99.90;;;;;;5011887;28;20711;-77
2021/08/03 09:11:20;;;;;;;3.73;3.33;;;19.60;99.90;;;;;;5019061;28;20569;-76
2021/08/03 09:13:53;;;;;;;4.23;3.83;;;19.70;99.90;;;;;;5012892;28;21079;-76
2021/08/03 09:16:20;;;;;;;3.50;3.07;;;19.70;99.90;;;;;;5013077;28;20625;-76
2021/08/03 09:18:46;;;;;;;3.67;3.13;;;19.70;99.90;;;;;;5011905;28;20935;-77
2021/08/03 09:21:28;;;;;;;3.20;2.63;;;19.80;99.90;;;;;;5011687;28;21247;-76
2021/08/03 09:24:01;;;;;;;4.03;2.93;;;19.80;99.90;;;;;;4994776;28;20605;-75
2021/08/03 09:26:41;;;;;;;2.80;2.60;;;19.90;99.90;;;;;;5012637;28;21164;-77
2021/08/03 09:29:09;;;;;;;3.13;2.70;;;20.00;99.90;;;;;;5010562;28;20587;-76
2021/08/03 09:31:38;;;;;;;4.30;2.70;;;20.10;99.90;;;;;;5011355;28;20992;-76
2021/08/03 09:34:15;;;;;;;4.90;3.00;;;20.20;99.90;;;;;;5010714;28;20632;-75
2021/08/03 09:37:10;;;;;;;3.23;2.93;;;20.10;99.90;;;;;;5011229;28;21059;-76
2021/08/03 09:39:43;;;;;;;3.77;2.93;;;20.10;99.90;;;;;;5010426;28;20589;-75
2021/08/03 09:42:22;;;;;;;4.17;3.77;;;20.00;99.90;;;;;;5011330;28;20580;-77
2021/08/03 09:44:52;;;;;;;4.20;3.50;;;19.90;99.90;;;;;;5011156;28;20585;-76
2021/08/03 09:47:19;;;;;;;4.10;3.70;;;19.80;99.90;;;;;;5013734;28;20605;-77
2021/08/03 09:49:49;;;;;;;3.83;3.53;;;19.80;99.90;;;;;;5013425;28;20688;-76
2021/08/03 09:52:18;;;;;;;3.80;3.50;;;19.70;99.90;;;;;;5010877;28;21087;-76
2021/08/03 09:54:44;;;;;;;4.17;3.43;;;19.60;99.90;;;;;;5011115;28;20631;-75
2021/08/03 09:57:19;;;;;;;3.30;3.00;;;19.60;99.90;;;;;;4994409;28;20605;-75
2021/08/03 09:59:45;;;;;;;4.00;3.67;;;19.50;99.90;;;;;;5012307;28;20581;-75
2021/08/03 10:02:17;;;;;;;3.00;2.53;;;19.40;99.90;;;;;;5010780;28;21131;-75
2021/08/03 10:04:44;;;;;;;5.60;3.10;;;19.40;99.90;;;;;;5011953;28;20188;-76
2021/08/03 10:07:10;;;;;;;3.37;2.27;;;19.30;99.90;;;;;;5010472;28;21062;-75
2021/08/03 10:09:37;;;;;;;3.80;2.53;;;19.30;99.90;;;;;;5012028;28;20673;-76
2021/08/03 10:12:03;;;;;;;3.10;2.80;;;19.30;99.90;;;;;;5011699;28;20170;-75
2021/08/03 10:14:29;;;;;;;4.17;3.77;;;19.30;99.90;;;;;;5011691;28;20988;-76
2021/08/03 10:16:55;;;;;;;6.20;3.40;;;19.30;99.90;;;;;;5011923;28;20608;-75
2021/08/03 10:19:26;;;;;;;3.20;2.90;;;19.20;99.90;;;;;;5010509;28;20696;-76
2021/08/03 10:22:28;;;;;;;4.30;3.90;;;19.20;99.90;;;;;;5011993;28;20198;-76
2021/08/03 10:24:54;;;;;;;3.70;3.33;;;19.20;99.90;;;;;;5014974;28;20600;-76
2021/08/03 10:27:20;;;;;;;3.70;3.40;;;19.20;99.90;;;;;;5010621;28;21001;-76
2021/08/03 10:29:54;;;;;;;2.83;2.63;;;19.20;99.90;;;;;;5010451;28;20717;-76
2021/08/03 10:32:38;;;;;;;3.70;3.17;;;19.20;99.90;;;;;;5011757;28;20580;-76
2021/08/03 10:35:13;;;;;;;3.77;3.47;;;19.30;99.90;;;;;;5011408;28;20631;-76
2021/08/03 10:38:00;;;;;;;2.60;2.40;;;19.40;99.90;;;;;;4997272;28;21042;-76
2021/08/03 10:40:45;;;;;;;3.03;2.70;;;19.50;99.90;;;;;;5011831;28;20921;-76
2021/08/03 10:43:16;;;;;;;4.50;3.17;;;19.60;99.90;;;;;;5011975;28;20565;-77
2021/08/03 10:45:42;;;;;;;2.97;2.73;;;19.70;99.90;;;;;;5012665;28;20935;-77
2021/08/03 10:48:08;;;;;;;4.63;2.77;;;19.70;99.90;;;;;;5016039;28;20573;-76
2021/08/03 10:50:35;;;;;;;3.40;3.20;;;19.70;99.90;;;;;;5014368;28;20949;-76
2021/08/03 10:53:03;;;;;;;4.27;2.67;;;19.70;99.90;;;;;;5014637;28;20201;-76
2021/08/03 10:55:56;;;;;;;3.57;3.27;;;19.70;99.90;;;;;;5017330;28;20601;-76
2021/08/03 10:58:23;;;;;;;3.53;3.23;;;19.80;99.90;;;;;;5027732;28;20577;-76
2021/08/03 11:00:58;;;;;;;4.30;2.33;;;19.80;99.90;;;;;;5017486;28;20939;-76
2021/08/03 11:03:35;;;;;;;3.77;3.40;;;19.90;99.90;;;;;;5015730;28;20577;-76
2021/08/03 11:06:04;;;;;;;3.50;3.20;;;20.20;99.90;;;;;;5014843;28;21343;-76
2021/08/03 11:08:43;;;;;;;3.70;3.03;;;20.40;99.90;;;;;;5016228;28;20584;-75
2021/08/03 11:11:28;;;;;;;3.70;3.17;;;20.60;99.90;;;;;;5020828;28;20639;-75
2021/08/03 11:13:57;;;;;;;3.70;2.83;;;20.70;99.90;;;;;;5015359;28;20656;-76
2021/08/03 11:16:22;;;;;;;3.10;2.80;;;20.90;99.90;;;;;;5016406;28;20585;-76
2021/08/03 11:18:50;;;;;;;3.00;2.70;;;21.00;99.90;;;;;;5013498;28;20581;-76
2021/08/03 11:21:22;;;;;;;3.20;2.97;;;21.20;99.90;;;;;;5014053;28;20174;-76
2021/08/03 11:24:13;;;;;;;2.77;2.57;;;21.30;99.90;;;;;;5015076;28;20623;-75
2021/08/03 11:26:41;;;;;;;2.60;2.20;;;21.50;99.90;;;;;;5014978;28;20607;-75
2021/08/03 11:29:12;;;;;;;5.10;2.27;;;21.90;99.90;;;;;;5013792;28;20573;-75
2021/08/03 11:31:41;;;;;;;2.80;2.20;;;22.10;99.90;;;;;;5013995;28;20573;-75
2021/08/03 11:34:08;;;;;;;2.20;2.00;;;22.40;99.90;;;;;;4980899;28;20625;-76
2021/08/03 11:36:36;;;;;;;1.80;1.47;;;22.60;99.90;;;;;;5013680;28;20597;-76
2021/08/03 11:39:20;;;;;;;1.80;1.40;;;22.90;99.90;;;;;;5018004;28;20598;-75
2021/08/03 11:41:47;;;;;;;1.70;1.37;;;23.30;99.90;;;;;;4997199;28;20573;-76
2021/08/03 11:44:15;;;;;;;2.73;1.60;;;23.70;99.90;;;;;;5011541;28;20592;-75
2021/08/03 11:46:44;;;;;;;2.10;1.90;;;23.90;99.90;;;;;;5031843;28;20612;-75
2021/08/03 11:49:10;;;;;;;2.07;1.57;;;23.90;99.90;;;;;;5016229;28;20596;-75
2021/08/03 11:51:47;;;;;;;1.90;1.27;;;23.90;99.90;;;;;;5032876;28;20591;-76
2021/08/03 11:54:18;;;;;;;1.50;1.10;;;23.80;99.90;;;;;;5033599;28;20700;-76
2021/08/03 11:56:44;;;;;;;4.93;2.07;;;23.60;99.90;;;;;;5033324;28;21210;-76
2021/08/03 11:59:11;;;;;;;1.80;1.33;;;23.60;99.90;;;;;;5026053;28;21129;-76
2021/08/03 12:01:51;;;;;;;2.37;1.47;;;23.60;99.90;;;;;;4999726;28;20592;-76
2021/08/03 12:04:21;;;;;;;2.27;1.43;;;23.60;99.90;;;;;;5019172;28;20620;-76
2021/08/03 12:06:48;;;;;;;2.00;1.50;;;23.50;99.90;;;;;;5013555;28;20612;-76
2021/08/03 12:09:13;;;;;;;2.00;1.60;;;23.50;99.90;;;;;;5012732;28;20592;-75
2021/08/03 12:11:39;;;;;;;1.90;1.30;;;23.60;99.90;;;;;;4996328;28;20573;-75
2021/08/03 12:14:15;;;;;;;2.07;1.67;;;23.70;99.90;;;;;;5012556;28;20433;-76
2021/08/03 12:16:44;;;;;;;2.07;1.93;;;24.00;99.90;;;;;;5016547;28;20630;-75
2021/08/03 12:19:29;;;;;;;1.50;1.30;;;24.20;99.90;;;;;;5021639;28;20584;-75
2021/08/03 12:21:56;;;;;;;1.37;0.97;;;24.40;99.90;;;;;;5025020;28;20667;-75
2021/08/03 12:24:22;;;;;;;1.80;1.30;;;24.70;99.90;;;;;;5030746;28;21161;-76
2021/08/03 12:27:07;;;;;;;2.07;1.00;;;24.80;99.90;;;;;;5022783;28;20665;-76
2021/08/03 12:29:33;;;;;;;2.10;1.20;;;24.90;99.90;;;;;;5013979;28;20604;-76
2021/08/03 12:31:59;;;;;;;1.50;0.90;;;24.90;99.90;;;;;;5028980;28;20612;-76
2021/08/03 12:34:24;;;;;;;1.30;0.87;;;24.90;99.90;;;;;;5009356;28;20678;-75
2021/08/03 12:36:56;;;;;;;1.40;0.97;;;24.90;99.90;;;;;;5032031;28;20189;-75
2021/08/03 12:39:43;;;;;;;1.63;0.97;;;25.00;99.90;;;;;;5033040;28;20170;-75
2021/08/03 12:42:20;;;;;;;1.60;1.07;;;25.00;99.90;;;;;;5032076;28;20981;-76
2021/08/03 12:44:47;;;;;;;1.50;1.00;;;25.10;99.90;;;;;;5031553;28;20633;-76
2021/08/03 12:47:16;;;;;;;1.30;0.80;;;25.00;99.90;;;;;;5015199;28;20605;-75
2021/08/03 12:49:45;;;;;;;2.17;0.80;;;25.00;99.90;;;;;;5031377;28;20584;-75
2021/08/03 12:52:14;;;;;;;1.67;0.80;;;25.00;99.90;;;;;;5019431;28;20699;-75
2021/08/03 12:54:43;;;;;;;1.30;0.93;;;25.10;99.90;;;;;;5031260;28;20947;-76
2021/08/03 12:57:09;;;;;;;1.47;1.10;;;25.20;99.90;;;;;;5032924;28;21139;-76
2021/08/03 12:59:44;;;;;;;2.17;1.20;;;25.20;99.90;;;;;;5031158;28;20577;-76
2021/08/03 13:02:13;;;;;;;2.90;1.10;;;25.20;99.90;;;;;;5030938;28;20591;-76